Flight Track Log - Related Links

Times and Time Zones

All times are in EDT time to prevent confusion due to time zone crossing. See the SWA3917 flight status page for this flight to view local times or setup timezone preferences in your user account.

Time Position Orientation Groundspeed Altitude Reporting Facility
EDT Latitude Longitude Course Direction KTS MPH feet Rate Location/Type
Fri 07:33:47 AM 42.7653 -73.8061 359° North 166 191 1,200  Level Boston Center
Fri 07:34:12 AM 42.7819 -73.8064 359° North 160 184 2,000 2,368 Climbing Boston Center
Fri 07:35:03 AM 42.8211 -73.8469 323° Northwest 228 262 4,200 2,649 Climbing Boston Center
Fri 07:36:03 AM 42.8536 -73.9014 309° West 235 270 6,900 3,450 Climbing Boston Center
Fri 07:37:03 AM 42.8878 -73.9986 296° West 242 278 11,100 3,800 Climbing Boston Center
Fri 07:38:03 AM 42.8903 -74.1150 272° West 288 331 14,500 3,000 Climbing Boston Center
Fri 07:39:03 AM 42.8539 -74.1847 235° Southwest 328 377 17,100 2,600 Climbing Boston Center
Fri 07:40:03 AM 42.7397 -74.1617 172° South 281 323 19,700 2,800 Climbing Boston Center
Fri 07:41:03 AM 42.6300 -74.1050 159° South 340 391 22,700 3,050 Climbing Boston Center
Fri 07:42:03 AM 42.5183 -74.0344 155° Southeast 377 434 25,800 2,800 Climbing Boston Center
Fri 07:43:03 AM 42.4108 -73.9728 157° South 404 465 28,300 2,150 Climbing Boston Center
Fri 07:44:03 AM 42.3033 -73.9139 158° South 410 472 30,100 1,455 Climbing Boston Center
Fri 07:45:15 AM 42.1917 -73.8439 155° Southeast 420 483 31,500 1,636 Climbing Boston Center
Fri 07:46:15 AM 42.0550 -73.7711 158° South 437 503 33,700 2,000 Climbing Boston Center
Fri 07:47:15 AM 41.9411 -73.7044 156° South 437 503 35,500 1,850 Climbing Boston Center
Fri 07:48:15 AM 41.8308 -73.6856 173° South 410 472 37,400 1,043 Climbing Boston Center
Fri 07:50:42 AM 41.6006 -73.8447 207° Southwest 434 499 39,100 699 Climbing New York Center
Fri 07:51:41 AM 41.4922 -73.9231 208° Southwest 420 483 39,800 450 Climbing New York Center
Fri 07:52:42 AM 41.3861 -73.9953 207° Southwest 427 491 40,000 98 Climbing New York Center
Fri 07:53:43 AM 41.2822 -74.0703 208° Southwest 427 491 40,000  Level New York Center
Fri 07:54:44 AM 41.1631 -74.1528 208° Southwest 427 491 40,000  Level New York Center
Fri 07:55:41 AM 41.0531 -74.2186 204° Southwest 432 497 40,000  Level New York Center
Fri 07:56:42 AM 40.9625 -74.3186 220° Southwest 438 504 40,000  Level New York Center
Fri 07:57:42 AM 40.8781 -74.4267 224° Southwest 432 497 40,000  Level New York Center
Fri 07:58:42 AM 40.7953 -74.5344 225° Southwest 427 491 40,000  Level New York Center
Fri 07:59:44 AM 40.7128 -74.6450 225° Southwest 427 491 40,000  Level New York Center
Fri 08:00:41 AM 40.6278 -74.7550 225° Southwest 427 491 40,000  Level New York Center
Fri 08:01:43 AM 40.5447 -74.8650 225° Southwest 427 491 40,000  Level New York Center
Fri 08:02:41 AM 40.4619 -74.9719 225° Southwest 427 491 40,000  Level New York Center
Fri 08:03:42 AM 40.3786 -75.0839 226° Southwest 427 491 40,000  Level New York Center
Fri 08:04:42 AM 40.2953 -75.1931 225° Southwest 427 491 40,000  Level New York Center
Fri 08:05:43 AM 40.2100 -75.3017 224° Southwest 427 491 40,000  Level New York Center
Fri 08:06:43 AM 40.1286 -75.4078 225° Southwest 427 491 40,000  Level New York Center
Fri 08:07:41 AM 40.0431 -75.5158 224° Southwest 427 491 40,000  Level New York Center
Fri 08:08:42 AM 39.9617 -75.6242 226° Southwest 427 491 40,000  Level New York Center
Fri 08:09:42 AM 39.8819 -75.7322 226° Southwest 422 486 40,000  Level New York Center
Fri 08:10:42 AM 39.8103 -75.8489 231° Southwest 422 486 40,000  Level New York Center
Fri 08:11:42 AM 39.7364 -75.9650 230° Southwest 422 486 40,000  Level New York Center
Fri 08:12:43 AM 39.6644 -76.0811 231° Southwest 422 486 40,000  Level New York Center
Fri 08:14:00 AM 39.5744 -76.2214 230° Southwest 427 491 40,000  Level Washington Center
Fri 08:15:01 AM 39.5008 -76.3367 230° Southwest 427 491 40,000  Level Washington Center
Fri 08:16:01 AM 39.4231 -76.4511 229° Southwest 427 491 40,000  Level Washington Center
Fri 08:17:03 AM 39.3408 -76.5764 230° Southwest 427 491 40,000  Level Washington Center
Fri 08:18:00 AM 39.2669 -76.6906 230° Southwest 427 491 40,000  Level Washington Center
Fri 08:19:00 AM 39.1950 -76.8047 231° Southwest 427 491 40,000  Level Washington Center
Fri 08:20:01 AM 39.1208 -76.9214 231° Southwest 427 491 40,000  Level Washington Center
Fri 08:21:01 AM 39.0464 -77.0350 230° Southwest 427 491 40,000  Level Washington Center
Fri 08:22:02 AM 38.9578 -77.1344 221° Southwest 427 491 40,000  Level Washington Center
Fri 08:23:02 AM 38.8667 -77.2314 220° Southwest 422 486 40,000  Level Washington Center
Fri 08:24:03 AM 38.7800 -77.3278 221° Southwest 422 486 40,000  Level Washington Center
Fri 08:25:00 AM 38.6889 -77.4269 220° Southwest 427 491 40,000  Level Washington Center
Fri 08:26:01 AM 38.5978 -77.5256 220° Southwest 427 491 40,000  Level Washington Center
Fri 08:27:02 AM 38.5086 -77.6214 220° Southwest 427 491 40,000  Level Washington Center
Fri 08:28:02 AM 38.4214 -77.7197 221° Southwest 427 491 40,000  Level Washington Center
Fri 08:29:01 AM 38.3300 -77.8150 219° Southwest 427 491 40,000  Level Washington Center
Fri 08:30:02 AM 38.2406 -77.9128 221° Southwest 427 491 40,000  Level Washington Center
Fri 08:31:02 AM 38.1489 -78.0103 220° Southwest 432 497 40,000  Level Washington Center
Fri 08:32:00 AM 38.0572 -78.1075 220° Southwest 432 497 40,000  Level Washington Center
Fri 08:33:00 AM 37.9783 -78.1892 219° Southwest 432 497 40,000  Level Washington Center
Fri 08:34:01 AM 37.8844 -78.2808 218° Southwest 427 491 40,000  Level Washington Center
Fri 08:35:01 AM 37.7844 -78.3769 217° Southwest 440 506 40,000  Level Washington Center
Fri 08:36:14 AM 37.6839 -78.4731 217° Southwest 446 513 40,000  Level Washington Center
Fri 08:37:14 AM 37.5539 -78.5914 216° Southwest 451 519 40,000  Level Washington Center
Fri 08:38:12 AM 37.4492 -78.6892 217° Southwest 451 519 40,000  Level Washington Center
Fri 08:39:13 AM 37.3444 -78.7842 216° Southwest 462 532 40,000  Level Washington Center
Fri 08:40:13 AM 37.2439 -78.8792 217° Southwest 467 537 40,000  Level Washington Center
Fri 08:41:13 AM 37.1411 -78.9764 217° Southwest 467 537 40,000  Level Washington Center
Fri 08:42:14 AM 37.0489 -79.0608 216° Southwest 467 537 40,000  Level Washington Center
Fri 08:43:12 AM 36.9439 -79.1575 216° Southwest 467 537 40,000  Level Washington Center
Fri 08:44:12 AM 36.8408 -79.2514 216° Southwest 467 537 40,000  Level Washington Center
Fri 08:46:20 AM 36.6211 -79.4528 216° Southwest 453 521 40,000  Level Atlanta Center
Fri 08:47:20 AM 36.5183 -79.5439 215° Southwest 463 533 40,000  Level Atlanta Center
Fri 08:48:20 AM 36.4153 -79.6375 216° Southwest 463 533 40,000  Level Atlanta Center
Fri 08:49:20 AM 36.3000 -79.7417 216° Southwest 463 533 40,000  Level Atlanta Center
Fri 08:50:20 AM 36.1969 -79.8347 216° Southwest 463 533 40,000  Level Atlanta Center
Fri 08:51:20 AM 36.0917 -79.9300 216° Southwest 463 533 40,000  Level Atlanta Center
Fri 08:52:20 AM 35.9794 -80.0075 209° Southwest 463 533 40,000  Level Atlanta Center
Fri 08:53:20 AM 35.8686 -80.0617 202° Southwest 463 533 40,000  Level Atlanta Center
Fri 08:54:20 AM 35.7475 -80.1239 203° Southwest 476 548 40,000  Level Atlanta Center
Fri 08:55:20 AM 35.6122 -80.1942 203° Southwest 482 555 40,000  Level Atlanta Center
Fri 08:56:20 AM 35.4889 -80.2561 202° Southwest 482 555 40,000  Level Atlanta Center
Fri 08:57:20 AM 35.3675 -80.3153 202° Southwest 482 555 40,000  Level Atlanta Center
Fri 08:58:20 AM 35.2464 -80.3792 203° Southwest 482 555 40,000  Level Atlanta Center
Fri 08:59:20 AM 35.1208 -80.4406 202° Southwest 476 548 40,000  Level Atlanta Center
Fri 09:00:20 AM 35.0097 -80.4936 201° Southwest 481 554 40,000  Level Atlanta Center
Fri 09:02:34 AM 34.7300 -80.6367 203° Southwest 497 572 40,000  Level Jacksonville Center
Fri 09:03:34 AM 34.5914 -80.7008 201° Southwest 487 560 40,000  Level Jacksonville Center
Fri 09:04:34 AM 34.4653 -80.7669 203° Southwest 494 568 40,000  Level Jacksonville Center
Fri 09:05:34 AM 34.3514 -80.8203 201° Southwest 494 568 40,000  Level Jacksonville Center
Fri 09:06:34 AM 34.2336 -80.8808 203° Southwest 486 559 40,000  Level Jacksonville Center
Fri 09:07:34 AM 34.1114 -80.9361 201° Southwest 480 552 40,000  Level Jacksonville Center
Fri 09:08:34 AM 33.9869 -80.9967 202° Southwest 480 552 40,000  Level Jacksonville Center
Fri 09:09:34 AM 33.8672 -81.0892 213° Southwest 468 539 40,000  Level Jacksonville Center
Fri 09:10:34 AM 33.7769 -81.1961 225° Southwest 465 535 40,000 -150 Level Jacksonville Center
Fri 09:11:34 AM 33.6825 -81.3053 224° Southwest 470 541 39,700 -800 Descending Jacksonville Center
Fri 09:12:34 AM 33.5897 -81.4017 221° Southwest 463 533 38,400 -1,550 Descending Jacksonville Center
Fri 09:13:34 AM 33.4969 -81.4978 221° Southwest 457 526 36,600 -1,150 Descending Jacksonville Center
Fri 09:14:34 AM 33.3892 -81.5742 211° Southwest 451 519 36,100 -300 Descending Jacksonville Center
Fri 09:15:34 AM 33.2622 -81.6183 196° South 451 519 36,000 -50 Descending Jacksonville Center
Fri 09:16:34 AM 33.1356 -81.6647 197° South 466 536 36,000  Level Jacksonville Center
Fri 09:17:34 AM 33.0064 -81.7086 196° South 472 543 36,000  Level Jacksonville Center
Fri 09:18:34 AM 32.8817 -81.7497 195° South 477 549 36,000  Level Jacksonville Center
Fri 09:19:34 AM 32.7547 -81.7958 197° South 477 549 36,000  Level Jacksonville Center
Fri 09:20:34 AM 32.6319 -81.8417 197° South 477 549 36,000  Level Jacksonville Center
Fri 09:21:34 AM 32.5153 -81.8800 195° South 477 549 36,000  Level Jacksonville Center
Fri 09:22:34 AM 32.3758 -81.9283 196° South 477 549 36,000  Level Jacksonville Center
Fri 09:23:34 AM 32.2614 -81.9689 197° South 477 549 36,000  Level Jacksonville Center
Fri 09:24:34 AM 32.1197 -82.0144 195° South 477 549 36,000  Level Jacksonville Center
Fri 09:25:34 AM 31.9906 -82.0572 196° South 477 549 36,000  Level Jacksonville Center
Fri 09:26:34 AM 31.8800 -82.0950 196° South 471 542 36,000  Level Jacksonville Center
Fri 09:27:34 AM 31.7383 -82.1425 196° South 476 548 36,000  Level Jacksonville Center
Fri 09:28:46 AM 31.6156 -82.1900 198° South 471 542 36,000  Level Jacksonville Center
Fri 09:29:46 AM 31.4611 -82.2397 195° South 471 542 36,000  Level Jacksonville Center
Fri 09:30:46 AM 31.3383 -82.2844 197° South 465 535 36,000  Level Jacksonville Center
Fri 09:31:46 AM 31.2153 -82.3217 195° South 471 542 36,000  Level Jacksonville Center
Fri 09:32:46 AM 31.0922 -82.3614 195° South 466 536 36,000  Level Jacksonville Center
Fri 09:33:46 AM 30.9714 -82.4031 196° South 461 531 36,000  Level Jacksonville Center
Fri 09:34:46 AM 30.8503 -82.4400 195° South 456 525 36,000  Level Jacksonville Center
Fri 09:35:46 AM 30.7272 -82.4842 197° South 456 525 36,000  Level Jacksonville Center
Fri 09:36:46 AM 30.6022 -82.5208 194° South 456 525 36,000 -400 Level Jacksonville Center
Fri 09:37:46 AM 30.4769 -82.5503 191° South 456 525 35,200 -850 Descending Jacksonville Center
Fri 09:38:46 AM 30.3475 -82.5244 170° South 456 525 34,300 -600 Descending Jacksonville Center
Fri 09:39:46 AM 30.2158 -82.4958 169° South 469 540 34,000 -150 Descending Jacksonville Center
Fri 09:40:46 AM 30.0861 -82.4653 168° South 474 545 34,000 -50 Level Jacksonville Center
Fri 09:41:46 AM 29.9714 -82.4369 168° South 474 545 33,900 -900 Descending Jacksonville Center
Fri 09:42:46 AM 29.8375 -82.4114 171° South 474 545 32,200 -2,350 Descending Jacksonville Center
Fri 09:43:46 AM 29.7061 -82.3833 169° South 479 551 29,200 -2,650 Descending Jacksonville Center
Fri 09:44:46 AM 29.5744 -82.3553 170° South 484 557 26,900 -2,050 Descending Jacksonville Center
Fri 09:45:46 AM 29.4469 -82.3417 175° South 478 550 25,100 -1,700 Descending Jacksonville Center
Fri 09:46:46 AM 29.3236 -82.3281 175° South 472 543 23,500 -1,850 Descending Jacksonville Center
Fri 09:47:46 AM 29.2025 -82.3122 173° South 453 521 21,400 -2,200 Descending Jacksonville Center
Fri 09:48:46 AM 29.0878 -82.3008 175° South 433 498 19,100 -2,250 Descending Jacksonville Center
Fri 09:49:46 AM 28.9769 -82.2872 174° South 416 479 16,900 -2,175 Descending Jacksonville Center
Fri 09:51:26 AM 28.7833 -82.2667 175° South 374 430 13,300 -1,545 Descending Tampa TRACON
Fri 09:52:33 AM 28.6833 -82.2667 180° South 325 374 12,600 -952 Descending Tampa TRACON
Fri 09:53:32 AM 28.6000 -82.2500 170° South 314 361 11,300 -956 Descending Tampa TRACON
Fri 09:54:26 AM 28.5333 -82.2500 180° South 280 322 10,800 -835 Descending Tampa TRACON
Fri 09:55:27 AM 28.4500 -82.2500 180° South 270 311 9,700 -1,041 Descending Tampa TRACON
Fri 09:56:27 AM 28.3833 -82.2333 168° South 259 298 8,700 -1,100 Descending Tampa TRACON
Fri 09:57:27 AM 28.3167 -82.2333 180° South 252 290 7,500 -1,227 Descending Tampa TRACON
Fri 09:58:39 AM 28.2667 -82.2833 221° Southwest 239 275 6,000 -1,095 Descending Tampa TRACON
Fri 09:59:33 AM 28.2667 -82.3500 270° West 230 265 5,200 -1,000 Descending Tampa TRACON
Fri 10:00:33 AM 28.2667 -82.4167 270° West 226 260 4,100 -1,000 Descending Tampa TRACON
Fri 10:01:33 AM 28.2333 -82.4667 233° Southwest 220 253 3,200 -550 Descending Tampa TRACON
Fri 10:02:33 AM 28.1833 -82.5167 221° Southwest 209 241 3,000 -250 Descending Tampa TRACON
Fri 10:03:33 AM 28.1333 -82.5167 180° South 203 234 2,700 -550 Descending Tampa TRACON
Fri 10:04:33 AM 28.0833 -82.5333 196° South 178 205 1,900 -850 Descending Tampa TRACON
Fri 10:05:33 AM 28.0333 -82.5333 180° South 159 183 1,000 -783 Descending Tampa TRACON
Fri 10:06:28 AM 28.0000 -82.5333 180° South 136 157 400 -655 Descending Tampa TRACON
Fri 10:08:00 AM 27.9755 -82.5332 168° South  Level Estimated
Fri 10:15:00 AM 27.9755 -82.5332 168° South  Level Estimated
Fri 10:16:00 AM 27.9755 -82.5332 168° South  Level Estimated

Login

Don't have an account? Register now (free) for customized features, flight alerts, and more!